createdAt,value
2023-05-05T00:02:50.367Z,100666.53
2023-05-05T00:05:55.345Z,100663.84
2023-05-05T00:08:58.356Z,100671.88
2023-05-05T00:12:01.995Z,100664.72
2023-05-05T00:15:04.935Z,100658.47
2023-05-05T00:18:07.944Z,100654.88
2023-05-05T00:21:10.522Z,100653.09
2023-05-05T00:24:13.784Z,100654.91
2023-05-05T00:27:16.220Z,100655.78
2023-05-05T00:30:19.214Z,100656.66
2023-05-05T00:33:21.986Z,100651.31
2023-05-05T00:36:24.840Z,100649.50
2023-05-05T00:39:27.452Z,100652.19
2023-05-05T00:42:41.565Z,100651.31
2023-05-05T00:45:47.557Z,100643.25
2023-05-05T00:48:51.171Z,100651.28
2023-05-05T00:51:53.722Z,100647.69
2023-05-05T00:54:56.827Z,100648.59
2023-05-05T00:58:00.567Z,100647.69
2023-05-05T01:01:03.762Z,100638.75
2023-05-05T01:04:07.241Z,100638.75
2023-05-05T01:07:13.033Z,100635.16
2023-05-05T01:10:20.849Z,100626.25
2023-05-05T01:13:42.803Z,100627.16
2023-05-05T01:17:05.462Z,100637.00
2023-05-05T01:20:21.603Z,100635.22
2023-05-05T01:23:49.926Z,100628.03
2023-05-05T01:27:08.548Z,100640.53
2023-05-05T01:30:29.687Z,100639.63
2023-05-05T01:33:36.677Z,100638.72
2023-05-05T01:36:42.966Z,100637.81
2023-05-05T01:39:49.883Z,100632.44
2023-05-05T01:42:54.516Z,100627.97
2023-05-05T01:45:57.804Z,100638.69
2023-05-05T01:49:01.001Z,100633.31
2023-05-05T01:52:05.170Z,100637.75
2023-05-05T01:55:08.544Z,100643.06
2023-05-05T01:58:12.288Z,100635.91
2023-05-05T02:01:15.519Z,100639.44
2023-05-05T02:04:22.734Z,100641.22
2023-05-05T02:07:26.342Z,100643.91
2023-05-05T02:10:30.061Z,100637.63
2023-05-05T02:13:32.936Z,100631.34
2023-05-05T02:16:37.369Z,100634.97
2023-05-05T02:19:43.249Z,100644.78
2023-05-05T02:22:46.156Z,100635.88
2023-05-05T02:25:55.786Z,100629.63
2023-05-05T02:29:12.488Z,100622.44
2023-05-05T02:32:19.429Z,100639.41
2023-05-05T02:35:24.523Z,100632.16
2023-05-05T02:38:29.371Z,100634.03
2023-05-05T02:41:34.847Z,100634.94
2023-05-05T02:44:42.403Z,100646.53
2023-05-05T02:47:45.405Z,100634.00
2023-05-05T02:50:48.546Z,100637.56
2023-05-05T02:53:52.625Z,100641.09
2023-05-05T02:56:57.472Z,100633.94
2023-05-05T03:00:23.240Z,100629.47
2023-05-05T03:03:39.813Z,100634.88
2023-05-05T03:06:48.036Z,100635.84
2023-05-05T03:10:00.344Z,100628.72
2023-05-05T03:13:03.285Z,100628.75
2023-05-05T03:16:07.524Z,100609.97
2023-05-05T03:19:12.260Z,100622.47
2023-05-05T03:22:15.827Z,100630.50
2023-05-05T03:25:18.954Z,100635.81
2023-05-05T03:28:22.438Z,100633.09
2023-05-05T03:31:25.583Z,100633.94
2023-05-05T03:34:28.957Z,100640.19
2023-05-05T03:37:32.245Z,100632.19
2023-05-05T03:40:43.720Z,100640.22
2023-05-05T03:43:48.413Z,100644.72
2023-05-05T03:46:51.378Z,100644.78
2023-05-05T03:49:54.531Z,100647.47
2023-05-05T03:52:57.454Z,100650.19
2023-05-05T03:56:00.204Z,100646.69
2023-05-05T03:59:03.661Z,100644.94
2023-05-05T04:02:06.208Z,100651.22
2023-05-05T04:05:09.414Z,100644.97
2023-05-05T04:08:12.046Z,100644.97
2023-05-05T04:11:14.865Z,100647.66
2023-05-05T04:14:17.776Z,100647.69
2023-05-05T04:17:20.641Z,100652.16
2023-05-05T04:20:24.227Z,100647.69
2023-05-05T04:23:27.055Z,100650.34
2023-05-05T04:26:29.933Z,100646.81
2023-05-05T04:29:32.902Z,100654.88
2023-05-05T04:32:36.177Z,100664.75
2023-05-05T04:35:39.729Z,100671.00
2023-05-05T04:38:42.920Z,100661.09
2023-05-05T04:41:45.774Z,100673.63
2023-05-05T04:44:48.405Z,100678.97
2023-05-05T04:47:52.082Z,100679.84
2023-05-05T04:50:54.933Z,100686.94
2023-05-05T04:53:58.384Z,100687.81
2023-05-05T04:57:00.849Z,100692.28
2023-05-05T05:00:05.484Z,100690.47
2023-05-05T05:03:08.296Z,100686.84
2023-05-05T05:06:11.170Z,100699.38
2023-05-05T05:09:13.824Z,100693.97
2023-05-05T05:12:16.746Z,100691.13
2023-05-05T05:15:19.300Z,100690.16
2023-05-05T05:18:22.627Z,100687.09
2023-05-05T05:21:26.081Z,100683.91
2023-05-05T05:24:30.042Z,100684.63
2023-05-05T05:27:32.756Z,100686.00
2023-05-05T05:30:35.789Z,100681.72
2023-05-05T05:33:39.814Z,100687.31
2023-05-05T05:36:43.130Z,100696.44
2023-05-05T05:39:52.114Z,100693.78
2023-05-05T05:42:55.404Z,100690.09
2023-05-05T05:45:59.313Z,100701.69
2023-05-05T05:49:02.513Z,100696.12
2023-05-05T05:52:05.993Z,100712.09
2023-05-05T05:55:09.466Z,100710.41
2023-05-05T05:58:12.663Z,100704.81
2023-05-05T06:01:16.054Z,100711.81
2023-05-05T06:04:19.451Z,100693.88
2023-05-05T06:07:22.172Z,100709.75
2023-05-05T06:10:28.214Z,100715.19
2023-05-05T06:13:32.695Z,100715.03
2023-05-05T06:16:35.910Z,100718.53
2023-05-05T06:19:40.973Z,100722.97
2023-05-05T06:22:44.314Z,100719.97
2023-05-05T06:25:47.655Z,100727.00
2023-05-05T06:28:50.481Z,100714.13
2023-05-05T06:31:53.039Z,100722.94
2023-05-05T06:34:56.065Z,100729.09
2023-05-05T06:37:58.596Z,100717.19
2023-05-05T06:41:01.800Z,100725.66
2023-05-05T06:44:04.507Z,100718.41
2023-05-05T06:47:07.296Z,100713.81
2023-05-05T06:50:10.212Z,100717.09
2023-05-05T06:53:13.383Z,100712.44
2023-05-05T06:56:15.935Z,100711.16
2023-05-05T06:59:18.652Z,100705.00
2023-05-05T07:02:21.241Z,100715.81
2023-05-05T07:05:24.092Z,100716.28
2023-05-05T07:08:26.728Z,100712.88
2023-05-05T07:11:30.103Z,100716.22
2023-05-05T07:14:32.871Z,100721.22
2023-05-05T07:17:35.805Z,100708.09
2023-05-05T07:20:38.318Z,100701.16
2023-05-05T07:23:41.132Z,100718.22
2023-05-05T07:26:44.032Z,100700.72
2023-05-05T07:29:48.650Z,100694.37
2023-05-05T07:32:51.516Z,100700.38
2023-05-05T07:35:54.424Z,100704.13
2023-05-05T07:38:56.926Z,100688.16
2023-05-05T07:42:01.500Z,100683.88
2023-05-05T07:45:04.938Z,100686.38
2023-05-05T07:48:07.828Z,100681.00
2023-05-05T07:51:10.995Z,100676.34
2023-05-05T07:54:13.871Z,100683.41
2023-05-05T07:57:17.379Z,100673.00
2023-05-05T08:00:20.417Z,100672.41
2023-05-05T08:03:24.836Z,100669.44
2023-05-05T08:06:28.635Z,100679.94
2023-05-05T08:09:31.412Z,100675.59
2023-05-05T08:12:33.934Z,100680.16
2023-05-05T08:15:36.948Z,100678.47
2023-05-05T08:18:39.862Z,100677.91
2023-05-05T08:21:42.657Z,100678.22
2023-05-05T08:24:46.221Z,100672.00
2023-05-05T08:27:49.116Z,100672.69
2023-05-05T08:30:52.005Z,100675.00
2023-05-05T08:33:55.120Z,100670.78
2023-05-05T08:36:57.659Z,100669.31
2023-05-05T08:40:00.549Z,100667.13
2023-05-05T08:43:03.682Z,100662.28
2023-05-05T08:46:06.678Z,100662.03
2023-05-05T08:49:14.801Z,100664.88
2023-05-05T08:52:24.224Z,100663.47
2023-05-05T08:55:27.468Z,100658.34
2023-05-05T08:58:30.550Z,100660.91
2023-05-05T09:01:33.942Z,100649.28
2023-05-05T09:04:37.052Z,100648.00
2023-05-05T09:07:43.998Z,100650.25
2023-05-05T09:10:49.061Z,100653.44
2023-05-05T09:13:51.650Z,100645.59
2023-05-05T09:16:54.556Z,100645.25
2023-05-05T09:20:04.731Z,100643.69
2023-05-05T09:23:11.687Z,100634.88
2023-05-05T09:26:14.476Z,100643.38
2023-05-05T09:29:21.491Z,100636.06
2023-05-05T09:32:24.705Z,100629.69
2023-05-05T09:35:27.876Z,100629.81
2023-05-05T09:38:30.655Z,100637.72
2023-05-05T09:41:37.850Z,100632.22
2023-05-05T09:44:40.728Z,100634.19
2023-05-05T09:47:43.993Z,100628.84
2023-05-05T09:50:46.560Z,100618.69
2023-05-05T09:53:49.306Z,100616.31
2023-05-05T09:56:57.518Z,100603.94
2023-05-05T10:00:01.807Z,100603.25
2023-05-05T10:03:08.198Z,100597.59
2023-05-05T10:06:11.327Z,100605.38
2023-05-05T10:09:14.750Z,100603.59
2023-05-05T10:12:17.994Z,100583.66
2023-05-05T10:15:21.451Z,100591.12
2023-05-05T10:18:26.082Z,100595.12
2023-05-05T10:21:33.460Z,100586.19
2023-05-05T10:24:43.460Z,100587.28
2023-05-05T10:27:47.904Z,100575.75
2023-05-05T10:30:53.061Z,100581.91
2023-05-05T10:34:07.083Z,100570.00
2023-05-05T10:37:11.546Z,100573.09
2023-05-05T10:40:15.244Z,100567.56
2023-05-05T10:43:18.124Z,100576.16
2023-05-05T10:46:20.780Z,100572.87
2023-05-05T10:49:48.791Z,100567.84
2023-05-05T10:53:08.399Z,100558.50
2023-05-05T10:56:16.983Z,100553.84
2023-05-05T10:59:38.189Z,100555.69
2023-05-05T11:02:42.019Z,100542.88
2023-05-05T11:06:08.836Z,100533.31
2023-05-05T11:09:27.921Z,100532.66
2023-05-05T11:12:31.764Z,100523.06
2023-05-05T11:15:37.704Z,100531.09
2023-05-05T11:18:44.374Z,100532.16
2023-05-05T11:22:00.423Z,100525.06
2023-05-05T11:25:45.846Z,100521.97
2023-05-05T11:28:59.668Z,100514.47
2023-05-05T11:32:13.138Z,100508.34
2023-05-05T11:35:16.374Z,100517.56
2023-05-05T11:38:19.858Z,100515.41
2023-05-05T11:41:33.584Z,100526.25
2023-05-05T11:44:36.250Z,100512.72
2023-05-05T11:47:39.114Z,100503.34
2023-05-05T11:50:43.678Z,100502.28
2023-05-05T11:53:48.472Z,100500.66
2023-05-05T11:56:54.503Z,100505.44
2023-05-05T12:00:03.682Z,100493.22
2023-05-05T12:03:07.426Z,100502.66
2023-05-05T12:06:10.694Z,100498.03
2023-05-05T12:09:16.394Z,100489.06
2023-05-05T12:12:19.760Z,100490.31
2023-05-05T12:15:30.387Z,100480.87
2023-05-05T12:18:33.157Z,100484.06
2023-05-05T12:21:35.884Z,100489.06
2023-05-05T12:24:39.473Z,100480.16
2023-05-05T12:27:52.089Z,100479.44
2023-05-05T12:30:58.958Z,100482.47
2023-05-05T12:34:03.098Z,100478.47
2023-05-05T12:37:06.048Z,100484.31
2023-05-05T12:40:44.895Z,100467.00
2023-05-05T12:43:48.153Z,100471.63
2023-05-05T12:46:53.002Z,100468.66
2023-05-05T12:49:56.439Z,100476.38
2023-05-05T12:52:58.931Z,100458.16
2023-05-05T12:56:01.815Z,100452.56
2023-05-05T12:59:08.713Z,100452.03
2023-05-05T13:02:11.696Z,100445.53
2023-05-05T13:05:14.755Z,100440.44
2023-05-05T13:08:18.598Z,100431.59
2023-05-05T13:11:21.618Z,100439.34
2023-05-05T13:14:24.348Z,100433.22
2023-05-05T13:17:26.909Z,100428.59
2023-05-05T13:20:30.070Z,100426.69
2023-05-05T13:23:32.917Z,100422.16
2023-05-05T13:26:36.786Z,100410.44
2023-05-05T13:29:40.091Z,100417.72
2023-05-05T13:32:43.146Z,100402.72
2023-05-05T13:35:46.109Z,100411.19
2023-05-05T13:38:49.387Z,100406.37
2023-05-05T13:41:51.907Z,100397.25
2023-05-05T13:44:54.756Z,100397.16
2023-05-05T13:47:57.293Z,100399.91
2023-05-05T13:51:00.197Z,100389.44
2023-05-05T13:54:03.107Z,100385.38
2023-05-05T13:57:07.942Z,100380.88
2023-05-05T14:00:15.023Z,100377.38
2023-05-05T14:03:19.708Z,100380.22
2023-05-05T14:06:28.034Z,100367.47
2023-05-05T14:09:30.952Z,100363.75
2023-05-05T14:15:37.618Z,100355.34
2023-05-05T14:18:40.166Z,100361.22
2023-05-05T14:21:42.984Z,100353.47
2023-05-05T14:24:45.633Z,100350.09
2023-05-05T14:27:48.510Z,100361.19
2023-05-05T14:30:51.053Z,100344.34
2023-05-05T14:33:54.218Z,100347.94
2023-05-05T14:36:57.246Z,100347.47
2023-05-05T14:40:00.234Z,100354.63
2023-05-05T14:43:02.772Z,100352.63
2023-05-05T14:46:07.173Z,100357.09
2023-05-05T14:49:09.960Z,100348.25
2023-05-05T14:52:12.735Z,100350.31
2023-05-05T14:55:15.373Z,100353.00
2023-05-05T14:58:22.399Z,100346.34
2023-05-05T15:01:25.918Z,100344.31
2023-05-05T15:04:28.970Z,100349.56
2023-05-05T15:07:31.921Z,100335.56
2023-05-05T15:10:34.827Z,100337.59
2023-05-05T15:13:40.257Z,100340.34
2023-05-05T15:16:43.360Z,100340.25
2023-05-05T15:19:45.904Z,100336.28
2023-05-05T15:22:49.675Z,100338.41
2023-05-05T15:25:52.257Z,100334.34
2023-05-05T15:28:55.089Z,100331.06
2023-05-05T15:31:57.638Z,100343.53
2023-05-05T15:35:00.821Z,100339.66
2023-05-05T15:38:04.281Z,100327.88
2023-05-05T15:41:07.418Z,100336.88
2023-05-05T15:44:12.161Z,100333.72
2023-05-05T15:47:14.998Z,100326.91
2023-05-05T15:50:17.720Z,100319.69
2023-05-05T15:53:21.299Z,100316.06
2023-05-05T15:56:27.336Z,100324.94
2023-05-05T15:59:30.144Z,100328.81
2023-05-05T16:02:32.792Z,100315.22
2023-05-05T16:05:35.689Z,100325.59
2023-05-05T16:08:38.816Z,100317.91
2023-05-05T16:11:41.686Z,100314.81
2023-05-05T16:14:44.179Z,100308.66
2023-05-05T16:17:47.028Z,100313.66
2023-05-05T16:20:49.520Z,100310.84
2023-05-05T16:23:52.906Z,100306.84
2023-05-05T16:26:55.410Z,100309.59
2023-05-05T16:29:59.695Z,100301.25
2023-05-05T16:33:02.467Z,100305.44
2023-05-05T16:36:05.449Z,100303.50
2023-05-05T16:39:08.155Z,100302.00
2023-05-05T16:42:11.019Z,100306.13
2023-05-05T16:45:13.726Z,100305.97
2023-05-05T16:48:18.388Z,100304.78
2023-05-05T16:51:20.989Z,100302.66
2023-05-05T16:54:23.728Z,100272.88
2023-05-05T16:57:26.453Z,100301.03
2023-05-05T17:00:29.327Z,100299.97
2023-05-05T17:03:32.053Z,100298.53
2023-05-05T17:06:34.890Z,100297.16
2023-05-05T17:09:37.651Z,100303.28
2023-05-05T17:12:40.966Z,100300.06
2023-05-05T17:15:44.390Z,100298.06
2023-05-05T17:18:47.260Z,100309.62
2023-05-05T17:21:50.229Z,100306.44
2023-05-05T17:24:52.958Z,100313.50
2023-05-05T17:27:56.227Z,100315.78
2023-05-05T17:31:00.007Z,100310.88
2023-05-05T17:37:09.072Z,100315.53
2023-05-05T17:40:11.749Z,100314.34
2023-05-05T17:43:14.626Z,100315.94
2023-05-05T17:46:17.283Z,100323.69
2023-05-05T17:49:21.609Z,100327.06
2023-05-05T17:52:25.088Z,100322.84
2023-05-05T17:55:28.479Z,100325.16
2023-05-05T17:58:30.974Z,100336.78
2023-05-05T18:01:33.931Z,100336.91
2023-05-05T18:04:37.434Z,100324.91
2023-05-05T18:07:39.969Z,100339.00
2023-05-05T18:10:43.377Z,100334.09
2023-05-05T18:13:46.233Z,100331.81
2023-05-05T18:16:52.502Z,100332.75
2023-05-05T18:19:55.122Z,100334.09
2023-05-05T18:22:57.919Z,100340.81
2023-05-05T18:26:00.556Z,100335.44
2023-05-05T18:29:03.525Z,100333.66
2023-05-05T18:32:06.588Z,100327.41
2023-05-05T18:35:09.909Z,100333.38
2023-05-05T18:38:12.631Z,100342.16
2023-05-05T18:41:15.740Z,100336.19
2023-05-05T18:44:19.328Z,100339.41
2023-05-05T18:47:22.125Z,100340.47
2023-05-05T18:50:24.657Z,100342.25
2023-05-05T18:53:27.584Z,100350.53
2023-05-05T18:56:30.754Z,100341.06
2023-05-05T18:59:33.756Z,100343.22
2023-05-05T19:02:37.058Z,100353.66
2023-05-05T19:05:41.538Z,100353.03
2023-05-05T19:08:45.928Z,100351.28
2023-05-05T19:11:48.794Z,100329.66
2023-05-05T19:14:51.507Z,100353.03
2023-05-05T19:17:54.767Z,100348.47
2023-05-05T19:20:57.326Z,100358.00
2023-05-05T19:24:00.166Z,100351.09
2023-05-05T19:27:03.012Z,100352.22
2023-05-05T19:30:08.054Z,100350.66
2023-05-05T19:33:10.585Z,100349.06
2023-05-05T19:36:13.463Z,100345.63
2023-05-05T19:39:16.016Z,100358.53
2023-05-05T19:42:19.037Z,100348.81
2023-05-05T19:45:21.740Z,100350.78
2023-05-05T19:48:24.584Z,100356.78
2023-05-05T19:51:27.282Z,100344.66
2023-05-05T19:54:30.101Z,100346.66
2023-05-05T19:57:32.872Z,100349.41
2023-05-05T20:00:35.758Z,100351.47
2023-05-05T20:03:38.726Z,100352.59
2023-05-05T20:06:41.516Z,100353.13
2023-05-05T20:09:44.639Z,100350.59
2023-05-05T20:12:49.159Z,100350.22
2023-05-05T20:15:52.159Z,100343.97
2023-05-05T20:18:54.694Z,100342.97
2023-05-05T20:21:58.050Z,100337.88
2023-05-05T20:28:04.364Z,100345.69
2023-05-05T20:31:06.872Z,100326.91
2023-05-05T20:34:09.607Z,100331.34
2023-05-05T20:37:13.745Z,100328.78
2023-05-05T20:40:17.039Z,100322.59
2023-05-05T20:43:19.746Z,100321.75
2023-05-05T20:46:22.586Z,100324.78
2023-05-05T20:49:25.134Z,100317.47
2023-05-05T20:52:27.939Z,100318.69
2023-05-05T20:55:30.626Z,100305.00
2023-05-05T20:58:33.870Z,100306.91
2023-05-05T21:01:36.589Z,100307.09
2023-05-05T21:04:39.378Z,100305.19
2023-05-05T21:07:41.813Z,100305.75
2023-05-05T21:10:44.776Z,100292.03
2023-05-05T21:13:47.848Z,100301.00
2023-05-05T21:16:50.818Z,100301.59
2023-05-05T21:19:53.948Z,100290.81
2023-05-05T21:22:56.911Z,100296.09
2023-05-05T21:25:59.474Z,100280.06
2023-05-05T21:29:02.284Z,100300.56
2023-05-05T21:32:06.795Z,100295.47
2023-05-05T21:35:10.415Z,100295.75
2023-05-05T21:38:13.006Z,100307.53
2023-05-05T21:41:16.786Z,100299.19
2023-05-05T21:44:19.587Z,100302.88
2023-05-05T21:47:22.489Z,100294.50
2023-05-05T21:50:25.519Z,100284.37
2023-05-05T21:53:29.475Z,100298.88
2023-05-05T21:56:33.554Z,100299.66
2023-05-05T21:59:36.626Z,100302.19
2023-05-05T22:02:39.206Z,100300.47
2023-05-05T22:05:41.972Z,100297.25
2023-05-05T22:08:44.447Z,100272.38
2023-05-05T22:11:47.434Z,100293.47
2023-05-05T22:14:50.123Z,100294.16
2023-05-05T22:17:53.026Z,100295.88
2023-05-05T22:20:55.637Z,100289.72
2023-05-05T22:23:58.787Z,100301.41
2023-05-05T22:27:01.899Z,100309.44
2023-05-05T22:30:05.073Z,100299.72
2023-05-05T22:33:07.970Z,100302.34
2023-05-05T22:36:11.529Z,100305.19
2023-05-05T22:39:14.405Z,100303.38
2023-05-05T22:42:17.234Z,100301.81
2023-05-05T22:45:20.057Z,100309.28
2023-05-05T22:48:23.029Z,100307.69
2023-05-05T22:51:25.571Z,100313.22
2023-05-05T22:54:28.313Z,100313.44
2023-05-05T22:57:30.875Z,100283.88
2023-05-05T23:00:33.802Z,100315.34
2023-05-05T23:03:36.784Z,100316.09
2023-05-05T23:06:42.390Z,100313.00
2023-05-05T23:09:46.841Z,100316.91
2023-05-05T23:12:50.112Z,100317.22
2023-05-05T23:15:52.633Z,100311.09
2023-05-05T23:18:55.515Z,100312.31
2023-05-05T23:22:02.181Z,100306.31
2023-05-05T23:25:05.557Z,100319.06
2023-05-05T23:28:08.056Z,100307.47
2023-05-05T23:31:10.881Z,100295.91
2023-05-05T23:34:14.549Z,100300.56
2023-05-05T23:37:17.396Z,100297.94
2023-05-05T23:40:19.957Z,100287.13
2023-05-05T23:43:23.112Z,100288.22
2023-05-05T23:46:25.661Z,100285.63
2023-05-05T23:49:28.610Z,100292.78
2023-05-05T23:52:31.077Z,100278.47
2023-05-05T23:55:34.388Z,100279.50
2023-05-05T23:58:37.287Z,100285.84
